createdAt,value
2018-05-25T00:00:30.986Z,101262.81
2018-05-25T00:02:58.402Z,101264.10
2018-05-25T00:05:25.842Z,101257.89
2018-05-25T00:07:53.284Z,101260.53
2018-05-25T00:10:20.672Z,101264.44
2018-05-25T00:12:48.105Z,101260.31
2018-05-25T00:15:15.526Z,101253.97
2018-05-25T00:17:42.926Z,101256.27
2018-05-25T00:20:10.317Z,101257.03
2018-05-25T00:22:37.814Z,101262.46
2018-05-25T00:25:05.271Z,101265.86
2018-05-25T00:27:32.701Z,101263.48
2018-05-25T00:30:00.141Z,101257.91
2018-05-25T00:32:27.541Z,101255.35
2018-05-25T00:34:54.937Z,101257.72
2018-05-25T00:37:22.352Z,101259.39
2018-05-25T00:39:49.805Z,101256.06
2018-05-25T00:42:17.201Z,101254.81
2018-05-25T00:44:44.607Z,101257.33
2018-05-25T00:47:11.988Z,101253.41
2018-05-25T00:49:39.396Z,101253.97
2018-05-25T00:52:06.782Z,101260.27
2018-05-25T00:54:34.196Z,101258.74
2018-05-25T00:57:01.637Z,101253.51
2018-05-25T00:59:29.061Z,101262.70
2018-05-25T01:01:56.534Z,101262.47
2018-05-25T01:04:23.939Z,101262.23
2018-05-25T01:06:51.345Z,101262.57
2018-05-25T01:09:18.802Z,101261.05
2018-05-25T01:11:46.259Z,101260.55
2018-05-25T01:14:13.726Z,101261.02
2018-05-25T01:16:41.190Z,101253.17
2018-05-25T01:19:08.613Z,101252.05
2018-05-25T01:21:36.061Z,101253.07
2018-05-25T01:24:03.441Z,101260.17
2018-05-25T01:26:30.858Z,101258.48
2018-05-25T01:28:58.263Z,101251.64
2018-05-25T01:31:25.661Z,101255.75
2018-05-25T01:33:53.060Z,101258.24
2018-05-25T01:36:20.449Z,101246.83
2018-05-25T01:38:47.860Z,101252.99
2018-05-25T01:41:15.261Z,101253.29
2018-05-25T01:43:42.676Z,101256.70
2018-05-25T01:46:10.056Z,101252.52
2018-05-25T01:48:37.449Z,101247.80
2018-05-25T01:51:04.857Z,101248.34
2018-05-25T01:53:32.270Z,101256.17
2018-05-25T01:55:59.728Z,101253.51
2018-05-25T01:58:27.178Z,101245.27
2018-05-25T02:00:54.585Z,101253.63
2018-05-25T02:03:21.996Z,101245.44
2018-05-25T02:05:49.453Z,101241.19
2018-05-25T02:08:16.905Z,101244.22
2018-05-25T02:10:44.304Z,101242.82
2018-05-25T02:13:11.693Z,101246.37
2018-05-25T02:15:39.169Z,101238.34
2018-05-25T02:18:06.625Z,101240.48
2018-05-25T02:20:34.026Z,101239.55
2018-05-25T02:23:01.441Z,101237.56
2018-05-25T02:25:28.914Z,101230.53
2018-05-25T02:27:56.353Z,101235.01
2018-05-25T02:30:23.758Z,101235.31
2018-05-25T02:32:51.145Z,101237.75
2018-05-25T02:35:18.563Z,101229.55
2018-05-25T02:37:45.977Z,101227.41
2018-05-25T02:40:13.378Z,101231.24
2018-05-25T02:42:40.790Z,101227.95
2018-05-25T02:45:08.185Z,101237.05
2018-05-25T02:47:35.581Z,101241.22
2018-05-25T02:50:03.059Z,101232.20
2018-05-25T02:52:30.561Z,101232.66
2018-05-25T02:54:57.966Z,101235.75
2018-05-25T02:57:25.363Z,101236.63
2018-05-25T02:59:52.756Z,101227.88
2018-05-25T03:02:20.251Z,101235.50
2018-05-25T03:04:47.659Z,101231.08
2018-05-25T03:07:15.040Z,101233.50
2018-05-25T03:09:42.506Z,101236.48
2018-05-25T03:12:09.961Z,101236.16
2018-05-25T03:14:37.421Z,101232.27
2018-05-25T03:17:04.926Z,101235.95
2018-05-25T03:19:32.276Z,101232.52
2018-05-25T03:21:59.668Z,101227.95
2018-05-25T03:24:27.066Z,101232.67
2018-05-25T03:26:54.504Z,101230.25
2018-05-25T03:29:21.958Z,101230.35
2018-05-25T03:31:49.365Z,101233.27
2018-05-25T03:34:16.799Z,101232.28
2018-05-25T03:36:44.238Z,101239.19
2018-05-25T03:39:11.647Z,101237.37
2018-05-25T03:41:39.036Z,101240.18
2018-05-25T03:44:06.424Z,101244.19
2018-05-25T03:46:33.846Z,101244.19
2018-05-25T03:49:01.238Z,101250.03
2018-05-25T03:51:28.657Z,101240.35
2018-05-25T03:53:56.138Z,101246.53
2018-05-25T03:56:23.548Z,101242.12
2018-05-25T03:59:02.798Z,101245.21
2018-05-25T04:01:42.157Z,101248.67
2018-05-25T04:04:09.524Z,101251.03
2018-05-25T04:06:36.966Z,101255.34
2018-05-25T04:09:04.405Z,101254.30
2018-05-25T04:11:31.797Z,101242.09
2018-05-25T04:13:59.199Z,101244.58
2018-05-25T04:16:26.609Z,101242.12
2018-05-25T04:18:54.007Z,101239.67
2018-05-25T04:21:21.412Z,101247.15
2018-05-25T04:23:48.797Z,101243.22
2018-05-25T04:26:16.193Z,101240.13
2018-05-25T04:28:43.602Z,101244.20
2018-05-25T04:31:11.015Z,101250.69
2018-05-25T04:33:38.402Z,101254.13
2018-05-25T04:36:05.797Z,101252.66
2018-05-25T04:38:33.189Z,101248.92
2018-05-25T04:41:00.634Z,101246.55
2018-05-25T04:43:28.090Z,101244.95
2018-05-25T04:45:55.485Z,101241.02
2018-05-25T04:48:22.877Z,101240.70
2018-05-25T04:50:50.281Z,101238.33
2018-05-25T04:53:17.673Z,101238.69
2018-05-25T04:55:45.091Z,101243.94
2018-05-25T04:58:12.474Z,101245.50
2018-05-25T05:00:39.893Z,101243.23
2018-05-25T05:03:07.302Z,101241.93
2018-05-25T05:05:34.708Z,101252.39
2018-05-25T05:08:02.101Z,101244.64
2018-05-25T05:10:29.497Z,101250.69
2018-05-25T05:12:56.894Z,101250.73
2018-05-25T05:15:24.325Z,101247.20
2018-05-25T05:17:51.725Z,101242.36
2018-05-25T05:20:19.137Z,101246.44
2018-05-25T05:22:46.541Z,101249.39
2018-05-25T05:25:14.049Z,101241.61
2018-05-25T05:27:41.621Z,101243.70
2018-05-25T05:30:09.065Z,101241.17
2018-05-25T05:32:36.517Z,101248.83
2018-05-25T05:35:03.980Z,101249.36
2018-05-25T05:37:31.447Z,101244.22
2018-05-25T05:39:58.848Z,101255.94
2018-05-25T05:42:26.363Z,101245.01
2018-05-25T05:44:53.781Z,101244.06
2018-05-25T05:47:21.192Z,101248.62
2018-05-25T05:49:48.591Z,101247.84
2018-05-25T05:52:16.082Z,101254.53
2018-05-25T05:54:43.502Z,101250.97
2018-05-25T05:57:10.916Z,101256.09
2018-05-25T05:59:38.312Z,101259.89
2018-05-25T06:02:05.825Z,101256.83
2018-05-25T06:04:33.265Z,101260.09
2018-05-25T06:07:00.722Z,101253.81
2018-05-25T06:09:28.192Z,101261.33
2018-05-25T06:11:55.852Z,101258.20
2018-05-25T06:14:23.301Z,101258.33
2018-05-25T06:16:50.704Z,101266.25
2018-05-25T06:19:18.087Z,101263.25
2018-05-25T06:21:45.561Z,101265.52
2018-05-25T06:24:13.023Z,101264.19
2018-05-25T06:26:40.559Z,101262.27
2018-05-25T06:29:07.965Z,101262.51
2018-05-25T06:31:35.437Z,101265.91
2018-05-25T06:34:02.898Z,101267.94
2018-05-25T06:36:30.315Z,101274.39
2018-05-25T06:38:57.733Z,101266.67
2018-05-25T06:41:25.137Z,101272.28
2018-05-25T06:43:52.516Z,101276.89
2018-05-25T06:46:19.978Z,101271.84
2018-05-25T06:48:47.429Z,101274.95
2018-05-25T06:51:14.849Z,101280.86
2018-05-25T06:53:42.241Z,101279.39
2018-05-25T06:56:09.645Z,101288.31
2018-05-25T06:58:37.031Z,101285.75
2018-05-25T07:01:04.554Z,101300.93
2018-05-25T07:03:32.032Z,101287.14
2018-05-25T07:05:59.584Z,101290.72
2018-05-25T07:08:26.997Z,101291.15
2018-05-25T07:10:54.497Z,101289.98
2018-05-25T07:13:21.890Z,101291.56
2018-05-25T07:15:49.303Z,101296.27
2018-05-25T07:18:16.698Z,101284.31
2018-05-25T07:20:44.112Z,101289.78
2018-05-25T07:23:11.573Z,101284.53
2018-05-25T07:25:39.037Z,101278.10
2018-05-25T07:28:07.228Z,101285.22
2018-05-25T07:30:34.640Z,101285.98
2018-05-25T07:33:02.035Z,101283.23
2018-05-25T07:35:29.638Z,101285.48
2018-05-25T07:37:57.045Z,101289.77
2018-05-25T07:40:24.462Z,101293.23
2018-05-25T07:42:51.863Z,101290.92
2018-05-25T07:45:19.268Z,101285.09
2018-05-25T07:47:46.666Z,101278.00
2018-05-25T07:50:14.076Z,101280.02
2018-05-25T07:52:41.482Z,101275.72
2018-05-25T07:55:08.888Z,101273.09
2018-05-25T07:57:36.350Z,101277.13
2018-05-25T08:00:04.109Z,101275.39
2018-05-25T08:02:31.505Z,101276.05
2018-05-25T08:04:59.005Z,101277.41
2018-05-25T08:07:26.449Z,101275.15
2018-05-25T08:09:53.870Z,101276.04
2018-05-25T08:12:21.406Z,101273.39
2018-05-25T08:14:48.821Z,101272.59
2018-05-25T08:17:16.277Z,101273.57
2018-05-25T08:19:43.684Z,101267.89
2018-05-25T08:22:11.201Z,101276.38
2018-05-25T08:24:38.601Z,101273.93
2018-05-25T08:27:05.993Z,101290.53
2018-05-25T08:29:33.381Z,101277.62
2018-05-25T08:32:00.783Z,101274.08
2018-05-25T08:34:28.170Z,101270.98
2018-05-25T08:36:55.565Z,101274.41
2018-05-25T08:39:22.981Z,101274.53
2018-05-25T08:41:50.404Z,101280.97
2018-05-25T08:44:17.793Z,101276.47
2018-05-25T08:46:45.198Z,101272.80
2018-05-25T08:49:12.580Z,101282.13
2018-05-25T08:51:40.098Z,101279.66
2018-05-25T08:54:07.524Z,101286.38
2018-05-25T08:56:34.981Z,101276.60
2018-05-25T08:59:02.437Z,101283.13
2018-05-25T09:01:30.059Z,101272.78
2018-05-25T09:03:57.484Z,101272.01
2018-05-25T09:06:24.928Z,101270.03
2018-05-25T09:08:52.339Z,101269.34
2018-05-25T09:11:19.735Z,101268.09
2018-05-25T09:13:47.187Z,101272.19
2018-05-25T09:16:14.589Z,101263.61
2018-05-25T09:18:42.002Z,101264.17
2018-05-25T09:21:09.388Z,101266.64
2018-05-25T09:23:36.809Z,101268.11
2018-05-25T09:26:04.196Z,101265.23
2018-05-25T09:28:31.589Z,101269.03
2018-05-25T09:30:59.039Z,101281.39
2018-05-25T09:33:26.384Z,101279.23
2018-05-25T09:35:53.797Z,101274.33
2018-05-25T09:38:21.248Z,101284.76
2018-05-25T09:40:48.642Z,101275.62
2018-05-25T09:43:16.040Z,101267.05
2018-05-25T09:45:43.440Z,101265.55
2018-05-25T09:48:10.833Z,101278.39
2018-05-25T09:50:38.232Z,101263.74
2018-05-25T09:53:05.686Z,101265.12
2018-05-25T09:55:33.168Z,101265.79
2018-05-25T09:58:00.601Z,101266.38
2018-05-25T10:00:28.021Z,101268.31
2018-05-25T10:02:55.430Z,101263.72
2018-05-25T10:05:22.870Z,101272.77
2018-05-25T10:07:50.291Z,101269.45
2018-05-25T10:10:17.705Z,101273.00
2018-05-25T10:12:45.117Z,101270.05
2018-05-25T10:15:12.509Z,101264.95
2018-05-25T10:17:39.996Z,101272.66
2018-05-25T10:20:07.408Z,101276.61
2018-05-25T10:22:34.796Z,101268.85
2018-05-25T10:25:02.185Z,101265.16
2018-05-25T10:27:29.631Z,101268.31
2018-05-25T10:29:57.020Z,101268.73
2018-05-25T10:32:24.536Z,101268.52
2018-05-25T10:34:51.921Z,101264.05
2018-05-25T10:37:19.323Z,101262.04
2018-05-25T10:39:46.725Z,101255.50
2018-05-25T10:42:14.153Z,101267.75
2018-05-25T10:44:41.537Z,101273.21
2018-05-25T10:47:08.969Z,101267.15
2018-05-25T10:49:36.441Z,101269.87
2018-05-25T10:52:03.829Z,101259.32
2018-05-25T10:54:31.237Z,101255.05
2018-05-25T10:56:58.654Z,101240.80
2018-05-25T10:59:26.153Z,101254.64
2018-05-25T11:01:53.565Z,101250.20
2018-05-25T11:04:20.961Z,101248.98
2018-05-25T11:06:48.363Z,101246.44
2018-05-25T11:09:15.755Z,101246.55
2018-05-25T11:11:43.233Z,101247.78
2018-05-25T11:14:10.631Z,101244.00
2018-05-25T11:16:38.058Z,101251.05
2018-05-25T11:19:05.502Z,101239.84
2018-05-25T11:21:32.965Z,101236.98
2018-05-25T11:24:00.435Z,101243.23
2018-05-25T11:26:27.904Z,101240.92
2018-05-25T11:28:55.336Z,101223.79
2018-05-25T11:31:22.810Z,101234.39
2018-05-25T11:33:50.202Z,101235.50
2018-05-25T11:36:17.593Z,101237.08
2018-05-25T11:38:45.068Z,101237.91
2018-05-25T11:41:12.492Z,101216.09
2018-05-25T11:43:39.982Z,101218.82
2018-05-25T11:46:07.378Z,101225.34
2018-05-25T11:48:34.795Z,101225.14
2018-05-25T11:51:02.196Z,101216.16
2018-05-25T11:53:29.609Z,101216.95
2018-05-25T11:55:57.985Z,101221.98
2018-05-25T11:58:25.406Z,101214.89
2018-05-25T12:00:52.840Z,101208.40
2018-05-25T12:03:20.273Z,101210.05
2018-05-25T12:05:47.689Z,101208.69
2018-05-25T12:08:15.174Z,101203.65
2018-05-25T12:10:42.569Z,101209.78
2018-05-25T12:13:09.996Z,101202.52
2018-05-25T12:15:37.402Z,101212.16
2018-05-25T12:18:04.796Z,101203.52
2018-05-25T12:20:32.251Z,101212.55
2018-05-25T12:22:59.716Z,101190.70
2018-05-25T12:25:27.125Z,101194.68
2018-05-25T12:27:54.590Z,101197.68
2018-05-25T12:30:21.985Z,101196.86
2018-05-25T12:32:49.383Z,101200.22
2018-05-25T12:35:16.794Z,101192.54
2018-05-25T12:37:44.210Z,101197.91
2018-05-25T12:40:11.673Z,101189.32
2018-05-25T12:42:39.071Z,101182.52
2018-05-25T12:45:14.335Z,101192.62
2018-05-25T12:47:41.741Z,101186.33
2018-05-25T12:50:09.129Z,101180.56
2018-05-25T12:52:36.529Z,101185.46
2018-05-25T12:55:03.931Z,101189.06
2018-05-25T12:57:31.349Z,101178.72
2018-05-25T12:59:58.752Z,101177.77
2018-05-25T13:02:26.157Z,101176.57
2018-05-25T13:04:53.625Z,101175.20
2018-05-25T13:07:21.021Z,101181.38
2018-05-25T13:09:48.474Z,101178.97
2018-05-25T13:12:15.877Z,101176.55
2018-05-25T13:14:43.349Z,101178.12
2018-05-25T13:17:10.843Z,101173.28
2018-05-25T13:19:38.293Z,101174.96
2018-05-25T13:22:05.706Z,101170.38
2018-05-25T13:24:33.143Z,101171.01
2018-05-25T13:27:00.557Z,101165.36
2018-05-25T13:29:28.018Z,101169.95
2018-05-25T13:31:55.429Z,101168.16
2018-05-25T13:34:22.933Z,101165.47
2018-05-25T13:36:50.317Z,101163.16
2018-05-25T13:39:17.729Z,101167.77
2018-05-25T13:41:45.212Z,101162.79
2018-05-25T13:44:12.913Z,101164.38
2018-05-25T13:46:40.404Z,101160.38
2018-05-25T13:49:07.814Z,101166.78
2018-05-25T13:51:35.232Z,101160.66
2018-05-25T13:54:02.657Z,101158.89
2018-05-25T13:56:30.070Z,101162.08
2018-05-25T13:58:57.500Z,101156.19
2018-05-25T14:01:24.985Z,101157.27
2018-05-25T14:03:52.469Z,101160.49
2018-05-25T14:06:19.879Z,101160.04
2018-05-25T14:08:47.288Z,101160.24
2018-05-25T14:11:14.750Z,101155.45
2018-05-25T14:13:42.225Z,101156.41
2018-05-25T14:16:09.725Z,101151.77
2018-05-25T14:18:37.128Z,101157.00
2018-05-25T14:21:04.528Z,101160.39
2018-05-25T14:23:31.933Z,101151.02
2018-05-25T14:25:59.556Z,101154.88
2018-05-25T14:28:26.975Z,101146.47
2018-05-25T14:30:54.426Z,101139.13
2018-05-25T14:33:21.830Z,101144.44
2018-05-25T14:35:49.291Z,101148.20
2018-05-25T14:38:16.690Z,101149.18
2018-05-25T14:40:44.339Z,101153.50
2018-05-25T14:43:11.738Z,101147.91
2018-05-25T14:45:39.159Z,101154.27
2018-05-25T14:48:06.686Z,101148.14
2018-05-25T14:50:34.218Z,101157.25
2018-05-25T14:53:01.725Z,101145.37
2018-05-25T14:55:29.169Z,101149.88
2018-05-25T14:57:56.573Z,101155.45
2018-05-25T15:00:23.957Z,101144.97
2018-05-25T15:02:51.463Z,101148.22
2018-05-25T15:05:18.922Z,101139.66
2018-05-25T15:07:46.317Z,101142.19
2018-05-25T15:10:13.786Z,101145.32
2018-05-25T15:12:41.184Z,101141.77
2018-05-25T15:15:08.581Z,101142.28
2018-05-25T15:17:36.045Z,101144.27
2018-05-25T15:20:03.454Z,101146.17
2018-05-25T15:22:30.845Z,101152.34
2018-05-25T15:24:58.246Z,101150.53
2018-05-25T15:27:25.637Z,101141.77
2018-05-25T15:29:53.034Z,101138.50
2018-05-25T15:32:20.421Z,101144.25
2018-05-25T15:34:47.846Z,101125.33
2018-05-25T15:37:15.265Z,101135.13
2018-05-25T15:39:42.669Z,101134.39
2018-05-25T15:42:10.062Z,101131.45
2018-05-25T15:44:37.456Z,101140.41
2018-05-25T15:47:05.054Z,101134.44
2018-05-25T15:49:32.490Z,101126.92
2018-05-25T15:51:59.941Z,101126.42
2018-05-25T15:54:27.365Z,101125.67
2018-05-25T15:56:54.777Z,101128.61
2018-05-25T15:59:22.176Z,101125.81
2018-05-25T16:01:49.670Z,101126.54
2018-05-25T16:04:17.126Z,101124.32
2018-05-25T16:06:44.532Z,101123.91
2018-05-25T16:09:11.937Z,101125.20
2018-05-25T16:11:39.316Z,101126.34
2018-05-25T16:14:06.722Z,101126.95
2018-05-25T16:16:34.114Z,101128.84
2018-05-25T16:19:01.505Z,101126.39
2018-05-25T16:21:28.901Z,101130.39
2018-05-25T16:23:56.377Z,101134.34
2018-05-25T16:26:23.779Z,101129.28
2018-05-25T16:28:51.310Z,101128.61
2018-05-25T16:31:18.674Z,101126.52
2018-05-25T16:33:46.194Z,101128.03
2018-05-25T16:36:13.588Z,101122.72
2018-05-25T16:38:41.097Z,101132.84
2018-05-25T16:41:08.486Z,101129.41
2018-05-25T16:43:35.912Z,101126.80
2018-05-25T16:46:03.325Z,101124.23
2018-05-25T16:48:30.727Z,101126.05
2018-05-25T16:50:58.180Z,101127.06
2018-05-25T16:53:25.632Z,101132.17
2018-05-25T16:55:53.121Z,101128.47
2018-05-25T16:58:20.485Z,101136.02
2018-05-25T17:00:47.901Z,101130.61
2018-05-25T17:03:15.293Z,101132.00
2018-05-25T17:05:42.744Z,101127.67
2018-05-25T17:08:10.173Z,101127.78
2018-05-25T17:10:37.637Z,101128.81
2018-05-25T17:13:05.103Z,101134.05
2018-05-25T17:15:32.504Z,101133.30
2018-05-25T17:17:59.898Z,101129.02
2018-05-25T17:20:27.365Z,101130.91
2018-05-25T17:22:54.772Z,101137.06
2018-05-25T17:25:22.175Z,101128.91
2018-05-25T17:27:49.562Z,101134.74
2018-05-25T17:30:16.972Z,101130.78
2018-05-25T17:32:44.358Z,101134.74
2018-05-25T17:35:11.798Z,101134.33
2018-05-25T17:37:39.197Z,101132.33
2018-05-25T17:40:06.659Z,101133.91
2018-05-25T17:42:34.048Z,101131.13
2018-05-25T17:45:01.479Z,101148.66
2018-05-25T17:47:28.953Z,101162.33
2018-05-25T17:49:56.358Z,101150.83
2018-05-25T17:52:23.752Z,101155.63
2018-05-25T17:54:51.146Z,101151.98
2018-05-25T17:57:18.540Z,101147.34
2018-05-25T17:59:45.947Z,101155.16
2018-05-25T18:02:13.368Z,101158.21
2018-05-25T18:04:40.827Z,101164.41
2018-05-25T18:07:08.209Z,101165.64
2018-05-25T18:09:35.610Z,101172.77
2018-05-25T18:12:03.089Z,101170.68
2018-05-25T18:14:30.507Z,101172.55
2018-05-25T18:16:57.900Z,101162.10
2018-05-25T18:19:25.293Z,101165.80
2018-05-25T18:21:52.721Z,101172.93
2018-05-25T18:24:20.113Z,101167.47
2018-05-25T18:26:47.505Z,101170.36
2018-05-25T18:29:14.985Z,101165.90
2018-05-25T18:31:42.389Z,101173.56
2018-05-25T18:34:09.809Z,101178.00
2018-05-25T18:36:37.202Z,101175.75
2018-05-25T18:39:04.605Z,101171.70
2018-05-25T18:41:31.996Z,101180.26
2018-05-25T18:43:59.434Z,101189.57
2018-05-25T18:46:26.833Z,101190.84
2018-05-25T18:48:54.213Z,101198.43
2018-05-25T18:51:21.634Z,101199.45
2018-05-25T18:54:00.957Z,101202.55
2018-05-25T18:56:28.361Z,101211.36
2018-05-25T18:58:55.870Z,101206.72
2018-05-25T19:01:23.467Z,101206.63
2018-05-25T19:03:51.185Z,101204.53
2018-05-25T19:06:18.729Z,101206.28
2018-05-25T19:08:46.176Z,101214.64
2018-05-25T19:11:13.759Z,101214.94
2018-05-25T19:13:41.420Z,101218.05
2018-05-25T19:16:09.008Z,101216.35
2018-05-25T19:18:36.558Z,101217.69
2018-05-25T19:21:04.099Z,101222.06
2018-05-25T19:23:31.653Z,101226.68
2018-05-25T19:26:00.002Z,101232.70
2018-05-25T19:28:27.480Z,101232.63
2018-05-25T19:30:54.889Z,101250.41
2018-05-25T19:33:22.297Z,101244.18
2018-05-25T19:35:49.701Z,101256.52
2018-05-25T19:38:17.133Z,101252.77
2018-05-25T19:40:44.545Z,101260.16
2018-05-25T19:43:11.957Z,101265.42
2018-05-25T19:45:39.344Z,101265.98
2018-05-25T19:48:06.838Z,101270.22
2018-05-25T19:50:34.254Z,101269.56
2018-05-25T19:53:01.671Z,101276.66
2018-05-25T19:55:29.101Z,101282.28
2018-05-25T19:57:56.521Z,101280.15
2018-05-25T20:00:23.947Z,101276.02
2018-05-25T20:02:51.343Z,101285.41
2018-05-25T20:05:18.741Z,101282.94
2018-05-25T20:07:46.130Z,101283.20
2018-05-25T20:10:13.614Z,101289.30
2018-05-25T20:12:41.058Z,101292.09
2018-05-25T20:15:08.550Z,101299.14
2018-05-25T20:17:35.970Z,101299.19
2018-05-25T20:20:03.437Z,101293.58
2018-05-25T20:22:30.827Z,101292.03
2018-05-25T20:24:58.240Z,101286.85
2018-05-25T20:27:25.743Z,101297.94
2018-05-25T20:29:53.241Z,101302.63
2018-05-25T20:32:20.659Z,101291.89
2018-05-25T20:34:48.137Z,101300.17
2018-05-25T20:37:15.533Z,101297.52
2018-05-25T20:39:42.962Z,101301.73
2018-05-25T20:42:10.363Z,101300.08
2018-05-25T20:44:37.886Z,101299.17
2018-05-25T20:47:05.301Z,101294.95
2018-05-25T20:49:32.697Z,101298.11
2018-05-25T20:52:00.117Z,101299.25
2018-05-25T20:54:27.523Z,101303.23
2018-05-25T20:56:54.934Z,101300.51
2018-05-25T20:59:22.350Z,101307.25
2018-05-25T21:01:49.778Z,101306.62
2018-05-25T21:04:17.164Z,101306.77
2018-05-25T21:06:44.573Z,101305.18
2018-05-25T21:09:12.000Z,101308.91
2018-05-25T21:11:39.387Z,101311.80
2018-05-25T21:14:06.853Z,101309.62
2018-05-25T21:16:34.244Z,101311.37
2018-05-25T21:19:01.738Z,101316.88
2018-05-25T21:21:29.170Z,101315.41
2018-05-25T21:23:56.570Z,101322.84
2018-05-25T21:26:23.986Z,101326.31
2018-05-25T21:28:51.409Z,101321.91
2018-05-25T21:31:18.922Z,101332.52
2018-05-25T21:33:46.305Z,101331.81
2018-05-25T21:36:13.729Z,101337.26
2018-05-25T21:38:41.284Z,101341.28
2018-05-25T21:41:08.689Z,101336.55
2018-05-25T21:43:36.097Z,101340.27
2018-05-25T21:46:03.577Z,101345.45
2018-05-25T21:48:30.972Z,101345.55
2018-05-25T21:50:58.428Z,101350.84
2018-05-25T21:53:25.813Z,101343.02
2018-05-25T21:55:53.226Z,101349.55
2018-05-25T21:58:20.652Z,101346.52
2018-05-25T22:00:48.049Z,101341.66
2018-05-25T22:03:15.438Z,101352.80
2018-05-25T22:05:42.932Z,101352.80
2018-05-25T22:08:10.379Z,101355.09
2018-05-25T22:10:37.839Z,101359.25
2018-05-25T22:13:05.277Z,101361.06
2018-05-25T22:15:32.762Z,101354.64
2018-05-25T22:18:00.221Z,101359.77
2018-05-25T22:20:27.692Z,101358.31
2018-05-25T22:22:55.125Z,101358.07
2018-05-25T22:25:22.514Z,101360.03
2018-05-25T22:27:49.925Z,101362.59
2018-05-25T22:30:17.343Z,101364.55
2018-05-25T22:32:44.833Z,101362.48
2018-05-25T22:35:12.321Z,101364.20
2018-05-25T22:37:39.735Z,101369.06
2018-05-25T22:40:07.122Z,101372.66
2018-05-25T22:42:46.341Z,101363.05
2018-05-25T22:45:25.583Z,101370.41
2018-05-25T22:48:04.753Z,101368.20
2018-05-25T22:50:43.918Z,101365.16
2018-05-25T22:53:16.385Z,101364.53
2018-05-25T22:55:43.802Z,101370.08
2018-05-25T22:58:11.223Z,101367.42
2018-05-25T23:00:38.681Z,101367.98
2018-05-25T23:03:06.105Z,101364.74
2018-05-25T23:05:33.623Z,101360.42
2018-05-25T23:08:01.018Z,101362.87
2018-05-25T23:10:28.427Z,101367.03
2018-05-25T23:12:55.811Z,101367.53
2018-05-25T23:15:23.535Z,101367.15
2018-05-25T23:17:50.931Z,101365.27
2018-05-25T23:20:18.355Z,101364.47
2018-05-25T23:22:45.755Z,101362.44
2018-05-25T23:25:13.173Z,101365.92
2018-05-25T23:27:40.621Z,101356.52
2018-05-25T23:30:08.090Z,101361.14
2018-05-25T23:32:35.496Z,101360.75
2018-05-25T23:35:02.973Z,101360.25
2018-05-25T23:37:30.389Z,101366.59
2018-05-25T23:39:57.770Z,101368.63
2018-05-25T23:42:25.183Z,101362.77
2018-05-25T23:44:53.727Z,101356.36
2018-05-25T23:47:21.134Z,101360.25
2018-05-25T23:49:48.566Z,101357.62
2018-05-25T23:52:15.983Z,101347.05
2018-05-25T23:54:43.464Z,101348.87
2018-05-25T23:57:10.858Z,101356.94
2018-05-25T23:59:38.261Z,101359.61
